Date,TemperatureHighF,TemperatureAvgF,TemperatureLowF,DewpointHighF,DewpointAvgF,DewpointLowF,HumidityHigh,HumidityAvg,HumidityLow,PressureMaxIn,PressureMinIn,WindSpeedMaxMPH,WindSpeedAvgMPH,GustSpeedMaxMPH,PrecipitationSumIn
2013-1-1,37.8,33.3,30.9,37.5,32.7,30.6,99,98,95,30.45,30.31,2,0,2,0.00
2013-1-2,41.5,34.6,31.5,40.9,33.7,30.5,99,97,88,30.31,30.16,2,0,2,0.00
2013-1-3,39.9,34.7,30.7,38.9,33.7,29.7,99,96,89,30.16,30.04,2,0,3,0.03
2013-1-4,41.7,39.9,36.3,41.4,39.5,35.8,99,99,98,30.25,30.08,2,1,4,0.02
2013-1-5,45.3,41.3,38.5,45.0,41.0,38.2,99,99,96,30.14,30.01,3,1,7,0.12
2013-1-6,45.3,41.0,39.6,44.5,40.5,39.2,99,98,96,30.10,29.92,3,2,8,0.30
2013-1-7,47.5,43.3,40.1,46.8,42.4,39.8,99,97,89,30.08,29.73,4,2,9,0.34
2013-1-8,48.7,43.6,40.3,48.4,43.0,39.8,99,98,96,30.09,29.61,6,2,10,0.86
2013-1-9,47.1,41.2,36.3,46.8,40.9,36.0,99,99,99,29.88,29.62,2,1,5,0.17
2013-1-10,37.6,34.8,30.6,37.3,34.4,29.3,99,99,95,30.09,29.87,2,0,4,0.16
2013-1-11,35.6,30.8,28.0,29.4,24.3,21.4,95,77,64,30.31,30.08,3,1,6,0.00
2013-1-12,33.6,28.6,25.2,28.0,23.3,20.0,90,81,66,30.39,30.26,2,0,3,0.00
2013-1-13,34.9,30.9,24.1,29.5,26.1,20.2,90,82,74,30.43,30.38,2,0,2,0.00
2013-1-14,35.2,33.6,32.2,32.8,30.3,27.3,93,88,82,30.51,30.40,1,0,2,0.00
2013-1-15,40.5,34.8,30.0,35.8,31.8,27.3,95,89,78,30.64,30.51,1,0,2,0.00
2013-1-16,40.8,33.4,29.5,35.7,30.0,27.0,96,87,75,30.63,30.47,1,0,3,0.00
2013-1-17,43.0,33.4,29.1,39.9,30.7,26.2,97,90,80,30.48,30.24,1,0,2,0.00
2013-1-18,37.9,33.4,30.7,37.4,32.5,29.7,98,96,94,30.29,30.21,1,0,2,0.00
2013-1-19,35.2,33.0,30.2,34.4,32.2,29.2,98,97,96,30.34,30.29,1,0,2,0.00
2013-1-20,42.6,35.2,30.4,40.3,33.7,29.9,99,94,86,30.39,30.23,1,0,2,0.00
2013-1-21,41.7,33.7,29.5,39.2,31.6,27.9,98,92,82,30.23,30.08,1,0,2,0.00
2013-1-22,37.4,34.0,30.9,36.9,33.3,29.9,98,97,95,30.11,29.88,2,0,2,0.00
2013-1-23,43.9,40.0,36.1,43.6,39.1,35.6,99,97,91,30.04,29.76,4,1,9,0.53
2013-1-24,43.3,40.4,37.0,43.0,40.1,36.7,99,99,99,30.14,29.95,3,1,6,0.12
2013-1-25,50.4,43.7,37.8,50.1,43.3,37.5,99,99,95,30.01,29.86,4,1,11,0.02
2013-1-26,39.7,38.5,36.9,39.4,38.2,36.6,99,99,99,29.96,29.81,3,1,6,0.25
2013-1-27,41.7,38.7,37.6,41.4,38.4,37.3,99,99,99,29.98,29.92,2,1,3,0.08
2013-1-28,39.0,37.8,36.5,38.7,37.5,36.2,99,99,99,30.00,29.93,4,1,6,0.17
2013-1-29,43.0,41.1,38.7,42.7,40.8,38.4,99,99,99,30.25,30.00,2,1,4,0.17
2013-1-30,46.9,44.4,42.4,46.6,44.1,42.1,99,99,99,30.31,30.24,4,1,5,0.00
2013-1-31,46.2,45.1,44.1,45.9,44.8,43.8,99,99,99,30.31,30.23,4,1,8,0.08
2013-2-1,48.9,44.2,40.1,46.8,42.8,38.7,99,95,83,30.42,30.27,1,0,4,0.00
2013-2-2,47.8,40.2,34.9,45.8,38.9,34.6,99,95,87,30.35,30.19,2,0,3,0.00
2013-2-3,44.1,42.0,39.7,43.3,41.4,38.9,99,98,96,30.25,30.14,2,0,5,0.14
2013-2-4,51.1,44.0,42.1,44.9,41.8,40.2,99,92,78,30.13,29.79,3,1,10,0.00
2013-2-5,48.9,45.3,41.9,43.6,39.9,38.1,97,81,70,29.85,29.73,5,3,15,0.03
2013-2-6,49.1,43.6,42.1,40.4,39.1,35.8,92,84,65,29.95,29.73,4,2,10,0.08
2013-2-7,54.9,42.3,34.0,49.1,38.3,30.8,97,86,72,30.14,29.73,7,2,12,0.03
2013-2-8,45.7,38.6,33.8,41.4,35.8,31.1,97,90,81,30.25,30.14,2,0,3,0.00
2013-2-9,42.3,39.5,34.7,40.7,37.8,33.1,96,94,89,30.28,30.20,1,0,2,0.03
2013-2-10,50.7,38.5,33.3,46.2,35.5,32.8,99,90,70,30.35,30.27,2,1,3,0.00
2013-2-11,42.8,41.0,39.4,40.5,38.4,36.4,95,91,84,30.29,30.25,2,1,3,0.00
2013-2-12,45.1,42.7,41.7,42.0,40.5,39.5,94,92,88,30.33,30.27,2,1,5,0.00
2013-2-13,46.8,42.0,40.6,41.0,37.2,36.1,86,83,79,30.43,30.38,2,1,4,0.00
2013-2-14,46.2,43.4,41.4,45.9,42.0,37.7,99,95,82,30.51,30.41,2,0,4,0.11
2013-2-15,58.8,44.7,39.6,49.2,41.5,37.3,99,89,65,30.51,30.12,2,0,3,0.00
2013-2-16,56.3,44.6,40.5,47.6,40.8,37.4,97,87,62,30.12,30.05,3,1,7,0.08
2013-2-17,45.3,41.2,39.0,44.2,39.1,36.0,99,93,81,30.24,30.07,3,1,4,0.08
2013-2-18,44.4,39.4,34.3,38.1,35.2,30.5,96,85,68,30.06,29.73,2,0,4,0.00
2013-2-19,56.7,40.4,33.6,40.3,33.7,29.4,92,78,53,29.95,29.71,3,1,6,0.00
2013-2-20,44.2,38.7,33.8,37.6,34.9,30.0,93,86,72,29.98,29.94,2,1,4,0.00
2013-2-21,41.9,39.3,36.0,41.6,38.2,33.3,99,96,87,29.99,29.93,4,2,7,0.08
2013-2-22,42.6,40.0,37.4,42.3,39.7,37.1,99,99,99,29.97,29.61,7,3,14,0.45
2013-2-23,52.5,41.6,37.0,52.2,39.8,36.1,99,94,78,30.28,29.80,3,1,7,0.00
2013-2-24,46.6,42.4,37.9,38.1,35.9,33.7,93,78,65,30.30,29.81,8,3,12,0.00
2013-2-25,43.7,40.5,38.3,43.4,39.7,36.5,99,97,82,30.22,29.79,6,2,9,0.28
2013-2-26,45.9,41.0,36.7,45.6,38.3,31.9,99,91,66,30.30,30.09,4,2,8,0.16
2013-2-27,46.4,41.3,37.8,46.1,40.7,34.6,99,98,77,30.26,30.10,3,1,9,0.06
2013-2-28,48.9,42.9,38.5,48.6,42.6,38.2,99,99,99,30.22,30.12,6,1,12,0.28
2013-3-1,53.8,51.2,48.6,51.7,49.5,47.2,99,94,83,30.23,30.17,6,4,15,0.25
2013-3-2,54.0,48.3,39.4,48.8,44.6,39.1,99,88,71,30.18,29.96,5,2,12,0.30
2013-3-3,48.2,39.3,34.0,47.9,38.4,32.6,99,97,90,30.26,30.11,2,1,5,0.00
2013-3-4,55.9,40.1,31.3,41.9,34.2,30.3,98,81,56,30.26,29.93,2,1,4,0.00
2013-3-5,48.4,41.2,34.9,38.3,34.1,30.8,89,77,56,29.93,29.73,2,0,5,0.00
2013-3-6,42.4,40.2,38.1,41.8,38.8,35.6,99,95,88,29.84,29.58,2,0,3,0.42
2013-3-7,44.6,41.0,38.3,44.3,40.7,38.0,99,99,99,30.07,29.84,2,0,4,0.05
2013-3-8,56.5,41.6,35.4,54.7,41.0,35.1,99,98,93,30.19,30.04,2,1,3,0.03
2013-3-9,60.3,42.7,34.2,46.6,38.0,33.9,99,85,60,30.45,30.19,2,1,4,0.00
2013-3-10,45.7,42.7,39.2,41.7,38.7,35.9,91,86,79,30.43,30.37,2,0,3,0.00
2013-3-11,51.1,43.1,36.7,43.0,38.0,33.9,96,83,63,30.39,30.09,2,0,4,0.06
2013-3-12,49.6,48.3,43.3,49.3,47.3,40.5,99,96,90,30.08,29.94,7,4,17,0.28
2013-3-13,51.3,49.6,48.4,51.0,49.3,48.1,99,99,99,30.10,30.00,5,2,8,0.39
2013-3-14,53.2,49.4,46.8,52.9,49.1,46.5,99,99,96,30.04,30.04,4,1,11,0.11
2013-3-15,55.0,49.4,44.1,54.2,48.6,43.8,99,97,91,30.04,30.04,3,1,6,0.28
2013-3-16,47.5,44.9,40.1,47.2,44.6,39.3,99,99,97,30.04,29.81,3,1,6,0.28
2013-3-17,53.4,43.7,37.9,42.8,36.4,32.1,99,77,55,30.15,29.99,3,1,6,0.00
2013-3-18,55.8,42.0,36.5,51.5,38.0,32.6,99,86,63,30.21,30.01,3,1,7,0.16
2013-3-19,50.2,40.9,34.5,36.8,33.6,31.3,89,77,52,30.19,29.75,4,1,10,0.00
2013-3-20,49.5,45.2,38.7,48.4,43.7,36.5,99,95,89,29.90,29.27,7,3,13,0.20
2013-3-21,57.6,41.4,35.2,38.0,33.3,30.1,93,74,46,30.15,29.90,4,1,9,0.08
2013-3-22,50.5,39.4,33.6,37.4,32.8,27.9,94,78,54,30.33,30.13,2,1,4,0.06
2013-3-23,56.5,38.8,32.5,37.2,31.8,28.3,90,78,43,30.40,30.31,2,1,3,0.00
2013-3-24,56.8,42.4,34.3,38.9,32.0,28.5,84,68,43,30.26,30.09,2,0,4,0.00
2013-3-25,64.4,46.4,38.7,41.9,35.6,31.5,81,67,44,30.11,29.92,2,1,3,0.00
2013-3-26,59.0,45.4,36.3,38.0,35.0,31.9,88,69,45,29.97,29.93,2,0,3,0.00
2013-3-27,60.6,48.2,38.3,45.0,39.3,34.2,90,72,55,30.00,29.92,2,0,4,0.00
2013-3-28,66.9,51.2,40.3,50.6,41.8,36.4,89,71,51,30.11,29.96,2,0,4,0.00
2013-3-29,67.5,51.7,42.8,49.9,43.5,40.0,92,75,51,30.28,30.10,2,1,3,0.00
2013-3-30,69.4,55.8,41.4,51.1,44.4,38.9,93,67,50,30.28,30.06,2,1,4,0.00
2013-3-31,70.0,52.8,41.2,48.3,42.0,37.5,93,69,43,30.07,29.89,3,0,3,0.00
2013-4-1,70.0,53.3,42.8,51.5,44.3,38.9,90,73,50,30.10,29.92,3,1,10,0.00
2013-4-2,65.5,51.4,47.7,49.6,43.8,41.5,82,75,54,30.19,30.08,3,1,4,0.00
2013-4-3,64.8,52.8,48.0,51.6,45.5,42.7,88,77,58,30.14,29.94,2,0,3,0.00
2013-4-4,53.4,50.9,47.3,52.5,48.0,43.5,97,90,82,29.94,29.55,6,1,17,0.28
2013-4-5,60.4,51.7,48.0,60.1,51.1,45.3,99,98,88,29.83,29.67,5,2,13,0.42
2013-4-6,55.8,49.7,45.3,50.5,45.5,40.7,98,86,65,29.89,29.60,6,2,10,0.14
2013-4-7,47.1,43.7,41.5,46.8,43.4,41.2,99,99,97,29.83,29.51,3,1,4,0.61
2013-4-8,53.2,46.9,42.8,52.9,46.3,42.5,99,98,95,30.20,29.83,2,1,4,0.00
2013-4-9,52.3,48.0,42.8,45.0,42.9,37.4,99,83,59,30.26,30.07,4,0,7,0.00
2013-4-10,56.1,50.6,47.5,52.1,43.9,37.2,95,79,58,30.11,29.82,6,3,18,0.34
2013-4-11,62.1,52.0,44.4,41.6,38.8,33.1,86,63,44,30.28,30.18,2,1,4,0.00
2013-4-12,44.8,41.5,39.7,40.1,37.6,33.9,94,86,76,30.13,29.61,4,1,12,0.27
2013-4-13,47.1,40.7,35.8,46.3,39.2,32.8,99,94,83,29.94,29.66,2,1,7,0.14
2013-4-14,57.0,44.9,38.7,49.6,39.7,34.3,99,84,52,29.99,29.88,2,1,4,0.00
2013-4-15,56.1,46.1,40.8,43.4,38.0,34.7,88,74,55,30.13,29.89,3,1,3,0.00
2013-4-16,66.0,48.2,35.4,42.3,32.8,23.3,91,61,23,30.33,30.13,2,1,4,0.00
2013-4-17,62.2,47.9,40.5,37.4,33.9,31.2,77,60,36,30.41,30.33,2,1,7,0.00
2013-4-18,49.1,46.5,43.9,46.6,41.7,36.4,99,84,65,30.38,30.12,3,1,5,0.25
2013-4-19,53.2,49.3,46.8,52.9,49.0,46.5,99,99,99,30.12,30.01,3,1,6,0.34
2013-4-20,56.5,49.2,46.2,53.3,48.4,45.9,99,97,85,30.21,30.10,3,1,6,0.22
2013-4-21,53.6,46.3,40.8,53.3,45.4,39.4,99,97,86,30.33,30.16,2,1,6,0.33
2013-4-22,40.1,39.8,39.7,38.7,38.4,38.3,95,95,95,30.34,30.34,0,0,0,0.00
2013-4-24,58.5,52.9,49.1,38.0,36.8,34.0,64,55,40,30.05,30.02,0,0,1,0.00
2013-4-25,68.2,55.1,43.2,46.6,41.3,36.5,80,61,42,30.14,30.00,2,1,4,0.00
2013-4-26,69.4,56.5,48.0,50.7,42.2,35.5,79,60,38,30.20,30.09,3,1,5,0.00
2013-4-27,54.1,50.7,46.9,49.2,43.6,38.2,99,78,56,30.14,30.07,4,1,9,0.17
2013-4-28,57.2,48.5,42.8,50.6,43.4,38.0,99,84,59,30.16,29.88,3,1,7,0.08
2013-4-29,55.9,47.4,42.4,43.2,37.1,31.4,90,70,45,30.10,29.86,3,1,5,0.08
2013-4-30,58.8,48.3,42.8,38.8,34.0,31.0,73,59,39,30.37,30.09,2,1,5,0.00
2013-5-5,73.4,64.3,58.3,47.7,46.9,45.4,66,54,37,29.79,29.77,1,0,2,0.00
2013-5-6,83.8,65.3,52.2,52.6,47.3,41.4,83,56,30,29.80,29.77,2,1,3,0.00
2013-5-7,74.8,61.7,52.3,56.0,49.1,45.6,81,64,44,29.80,29.80,2,1,5,0.00
2013-5-8,70.2,58.3,49.6,55.9,49.4,45.3,87,73,54,30.16,29.80,2,0,4,0.00
2013-5-9,71.4,58.3,48.4,55.0,48.9,44.9,89,72,53,30.23,30.08,2,0,3,0.00
2013-5-10,75.6,61.3,49.8,54.5,50.6,45.5,87,69,46,30.22,30.07,2,0,3,0.00
2013-5-11,73.9,62.6,55.6,55.2,51.0,47.1,84,67,47,30.12,29.95,2,0,4,0.00
2013-5-12,67.3,59.7,55.9,63.6,57.1,51.9,99,91,77,30.03,29.95,3,1,9,0.56
2013-5-13,64.9,55.8,48.0,60.3,51.8,42.5,99,87,60,30.12,29.86,4,1,11,0.22
2013-5-14,64.2,53.8,46.0,48.2,42.7,32.7,91,69,36,30.21,30.08,2,1,5,0.00
2013-5-15,69.4,55.9,46.8,49.7,45.5,41.7,87,70,42,30.08,29.97,2,0,4,0.06
2013-5-16,68.7,57.4,52.0,55.9,50.5,46.9,94,79,57,29.99,29.85,2,0,3,0.05
2013-5-17,59.9,54.6,51.8,52.2,50.1,47.3,99,85,70,30.00,29.88,2,0,6,0.14
2013-5-18,59.5,53.8,50.2,56.7,51.7,47.8,99,93,73,30.22,30.00,1,0,4,0.11
2013-5-19,63.5,55.4,50.2,51.7,48.3,44.8,90,78,57,30.40,30.21,2,0,3,0.00
2013-5-20,68.7,56.5,47.7,52.8,47.5,45.0,92,73,49,30.30,29.88,2,0,4,0.00
2013-5-21,54.0,49.6,47.1,50.8,48.2,46.3,99,95,77,29.87,29.76,1,0,2,0.78
2013-5-22,54.9,49.7,46.0,53.4,48.0,44.6,99,94,74,29.91,29.80,2,0,4,0.19
2013-5-23,58.6,49.7,43.5,56.5,48.0,43.2,99,94,82,29.96,29.89,2,0,3,0.03
2013-5-24,67.6,53.8,43.5,50.7,45.0,41.7,98,75,49,30.03,29.93,2,1,4,0.00
2013-5-25,63.1,55.6,50.5,48.6,46.3,43.5,85,71,56,30.02,29.95,2,0,4,0.00
2013-5-26,56.7,53.5,51.1,56.4,52.3,47.1,99,96,81,29.96,29.91,0,0,1,0.56
2013-5-27,58.3,54.0,50.4,58.0,53.7,50.1,99,99,99,29.91,29.69,1,0,2,0.05
2013-5-28,57.6,55.2,52.0,56.4,54.0,50.9,97,96,95,29.83,29.77,3,1,8,0.05
2013-5-29,56.3,52.7,50.0,52.8,49.2,43.8,96,88,77,29.83,29.83,2,0,6,0.03
2013-5-30,60.8,53.2,48.4,46.5,42.8,38.5,86,69,46,29.83,29.83,3,0,6,0.08
2013-5-31,61.9,55.3,50.2,44.6,40.5,32.8,77,59,34,29.83,29.83,2,0,3,0.00
2013-6-1,66.6,57.1,49.8,45.4,41.0,37.8,72,56,37,29.83,29.83,2,0,3,0.00
2013-6-2,68.4,57.8,52.0,44.6,40.7,35.5,67,54,35,30.11,29.83,2,0,3,0.00
2013-6-3,72.9,59.9,50.0,44.8,40.7,36.2,67,51,33,30.14,30.02,2,1,4,0.00
2013-6-4,78.3,62.8,50.5,46.9,41.5,36.9,73,49,25,30.14,29.99,2,0,3,0.00
2013-6-5,75.0,64.3,56.3,49.3,42.5,37.7,58,46,30,30.11,29.98,2,0,4,0.00
2013-6-6,77.0,64.4,53.1,47.6,40.4,27.7,69,45,21,30.07,29.95,2,1,4,0.00
2013-6-7,71.8,61.1,54.9,41.6,32.7,21.5,48,35,23,30.13,29.95,4,1,6,0.00
2013-6-8,68.2,58.5,51.1,38.7,35.7,32.5,55,43,28,30.19,30.06,2,1,7,0.00
2013-6-9,60.1,55.7,52.5,41.5,39.2,37.8,61,54,45,30.07,30.03,2,0,4,0.00
2013-6-10,72.3,59.9,45.9,39.2,35.3,31.5,63,42,23,30.00,29.85,2,1,4,0.00